Terminal Aerodrome Forecast
Issued by NWS

Home | Current Version | Previous Version | Text Only | Print | Product List | Glossary On
Versions: 1 2 3 4 5 6 7 8 9 10 11 12 13 14 15 16 17 18 19 20 21 22 23 24 25 26 27 28 29 30 31 32 33 34
000
FTUS43 KGRB 011724
TAFRHI
TAF
KRHI 011724Z 0118/0218 23007KT P6SM SCT020 SCT250
     FM012100 23008KT P6SM SCT030 SCT250
     FM020100 VRB02KT P6SM BKN250
     FM020400 00000KT 4SM BR SCT120 BKN250
     FM020900 00000KT 3SM BR VCSH SCT003 SCT015 BKN120
      TEMPO 0209/0213 1SM BR BKN003 OVC015
     FM021400 19004KT P6SM SCT015 BKN100 PROB30 0214/0218 5SM -SHRA
      BR BKN015=

USA.gov is the U.S. government's official web portal to all federal, state and local government web resources and services.